Time;durP1;ratioP1;P1;durP2;ratioP2;P2;SDS_P1;SDS_P2;PMS_P1;PMS_P2;Temp;Humidity;BMP_temperature;BMP_pressure;BME280_temperature;BME280_humidity;BME280_pressure;Samples;Min_cycle;Max_cycle;Signal;HPM_P1;HPM_P2
2022/09/04 00:02:01;;;;;;;3.63;2.60;;;15.90;99.90;;;;;;6302386;22;20442;-94
2022/09/04 00:04:40;;;;;;;3.47;2.60;;;15.90;99.90;;;;;;6311488;22;20441;-94
2022/09/04 00:07:21;;;;;;;4.20;3.30;;;15.90;99.90;;;;;;6311543;22;20417;-95
2022/09/04 00:10:10;;;;;;;4.10;3.00;;;15.80;99.90;;;;;;6313269;22;20470;-94
2022/09/04 00:12:45;;;;;;;2.53;2.33;;;15.80;99.90;;;;;;6313934;22;20423;-94
2022/09/04 00:15:16;;;;;;;2.90;2.60;;;15.70;99.90;;;;;;6314361;22;20394;-94
2022/09/04 00:18:25;;;;;;;3.10;2.67;;;15.70;99.90;;;;;;6314576;22;20475;-95
2022/09/04 00:20:57;;;;;;;2.40;2.20;;;15.70;99.90;;;;;;6301106;22;20531;-94
2022/09/04 00:23:32;;;;;;;3.30;3.00;;;15.70;99.90;;;;;;6311154;22;20411;-94
2022/09/04 00:26:07;;;;;;;3.27;2.30;;;15.60;99.90;;;;;;6312681;22;20391;-93
2022/09/04 00:28:38;;;;;;;3.30;2.77;;;15.50;99.90;;;;;;6314482;22;20509;-94
2022/09/04 00:31:14;;;;;;;2.83;2.40;;;15.60;99.90;;;;;;6314404;22;20418;-94
2022/09/04 00:33:50;;;;;;;3.13;2.83;;;15.50;99.90;;;;;;6314462;22;20410;-93
2022/09/04 00:36:21;;;;;;;2.80;2.47;;;15.50;99.90;;;;;;6314423;22;20406;-94
2022/09/04 00:39:18;;;;;;;3.23;2.60;;;15.50;99.90;;;;;;6304739;22;20404;-95
2022/09/04 00:42:13;;;;;;;3.27;2.70;;;15.40;99.90;;;;;;6315143;22;20498;-95
2022/09/04 00:45:07;;;;;;;3.30;2.80;;;15.40;99.90;;;;;;6313767;22;20426;-94
2022/09/04 00:47:50;;;;;;;3.50;2.90;;;15.40;99.90;;;;;;6312675;22;20415;-95
2022/09/04 00:50:48;;;;;;;2.83;2.53;;;15.40;99.90;;;;;;6312172;22;20415;-94
2022/09/04 00:53:37;;;;;;;3.53;2.50;;;15.30;99.90;;;;;;6310084;22;20514;-95
2022/09/04 00:56:31;;;;;;;2.93;2.63;;;15.30;99.90;;;;;;6310893;22;20519;-94
2022/09/04 00:59:08;;;;;;;3.40;2.50;;;15.30;99.90;;;;;;6300411;22;20399;-93
2022/09/04 01:01:35;;;;;;;3.30;2.33;;;15.20;99.90;;;;;;6304812;22;20497;-95
2022/09/04 01:04:18;;;;;;;3.47;2.80;;;15.20;99.90;;;;;;6311045;22;20414;-94
2022/09/04 01:06:56;;;;;;;4.30;3.10;;;15.20;99.90;;;;;;6312173;22;20411;-94
2022/09/04 01:09:46;;;;;;;3.17;2.87;;;15.20;99.90;;;;;;6311249;22;20421;-94
2022/09/04 01:12:29;;;;;;;3.33;2.70;;;15.20;99.90;;;;;;6310782;22;20445;-95
2022/09/04 01:15:10;;;;;;;3.13;2.73;;;15.20;99.90;;;;;;6308030;22;20415;-94
2022/09/04 01:17:46;;;;;;;2.60;2.37;;;15.20;99.90;;;;;;6308898;22;20410;-94
2022/09/04 01:20:21;;;;;;;2.40;2.20;;;15.10;99.90;;;;;;6309133;22;20444;-94
2022/09/04 01:23:30;;;;;;;2.57;2.37;;;15.10;99.90;;;;;;6301757;22;20465;-94
2022/09/04 01:26:09;;;;;;;2.60;2.03;;;15.10;99.90;;;;;;6316047;22;20394;-94
2022/09/04 01:28:46;;;;;;;3.63;2.80;;;15.10;99.90;;;;;;6316133;22;20429;-94
2022/09/04 01:31:24;;;;;;;2.90;2.47;;;15.00;99.90;;;;;;6316090;22;21102;-94
2022/09/04 01:34:02;;;;;;;2.67;2.43;;;15.00;99.90;;;;;;6315759;22;20466;-95
2022/09/04 01:36:45;;;;;;;2.50;2.30;;;15.00;99.90;;;;;;6314966;22;20435;-94
2022/09/04 01:39:12;;;;;;;3.13;2.83;;;15.00;99.90;;;;;;6313463;22;20490;-93
2022/09/04 01:41:45;;;;;;;2.90;2.60;;;15.00;99.90;;;;;;6315704;22;20436;-94
2022/09/04 01:44:12;;;;;;;3.07;2.77;;;15.00;99.90;;;;;;6312588;22;20417;-94
2022/09/04 01:46:58;;;;;;;3.07;2.77;;;14.90;99.90;;;;;;6309461;22;20494;-94
2022/09/04 01:49:35;;;;;;;3.03;2.73;;;14.90;99.90;;;;;;6311295;22;20419;-94
2022/09/04 01:52:18;;;;;;;2.63;2.43;;;14.90;99.90;;;;;;6311368;22;20465;-94
2022/09/04 01:54:55;;;;;;;3.30;2.50;;;14.80;99.90;;;;;;6311235;22;20411;-94
2022/09/04 01:57:40;;;;;;;2.77;2.50;;;14.80;99.90;;;;;;6311303;22;20472;-95
2022/09/04 02:00:12;;;;;;;2.63;2.43;;;14.80;99.90;;;;;;6301341;22;20403;-94
2022/09/04 02:02:54;;;;;;;3.63;2.53;;;14.70;99.90;;;;;;6308041;22;20468;-94
2022/09/04 02:05:29;;;;;;;2.80;2.50;;;14.70;99.90;;;;;;6308458;22;20442;-93
2022/09/04 02:08:13;;;;;;;3.20;2.40;;;14.70;99.90;;;;;;6309792;22;20433;-94
2022/09/04 02:10:49;;;;;;;3.47;2.53;;;14.70;99.90;;;;;;6300530;22;20486;-94
2022/09/04 02:13:23;;;;;;;2.40;2.20;;;14.70;99.90;;;;;;6309474;22;20434;-94
2022/09/04 02:16:05;;;;;;;3.00;2.57;;;14.70;99.90;;;;;;6311646;22;20403;-95
2022/09/04 02:18:44;;;;;;;2.73;2.43;;;14.70;99.90;;;;;;6315952;22;20401;-94
2022/09/04 02:21:22;;;;;;;3.70;2.40;;;14.60;99.90;;;;;;6308950;22;20444;-94
2022/09/04 02:24:01;;;;;;;2.63;2.43;;;14.60;99.90;;;;;;6307918;22;20419;-94
2022/09/04 02:26:32;;;;;;;2.27;2.07;;;14.60;99.90;;;;;;6308309;22;20441;-94
2022/09/04 02:29:06;;;;;;;2.97;2.10;;;14.60;99.90;;;;;;6307916;22;20498;-94
2022/09/04 02:31:40;;;;;;;2.70;2.50;;;14.60;99.90;;;;;;6306330;22;20437;-94
2022/09/04 02:34:13;;;;;;;2.80;2.60;;;14.50;99.90;;;;;;6296652;22;20434;-94
2022/09/04 02:36:47;;;;;;;3.17;2.20;;;14.50;99.90;;;;;;6303132;22;20423;-94
2022/09/04 02:39:28;;;;;;;3.30;2.53;;;14.50;99.90;;;;;;6297643;22;20422;-94
2022/09/04 02:42:04;;;;;;;2.30;2.10;;;14.50;99.90;;;;;;6300448;22;20447;-94
2022/09/04 02:44:44;;;;;;;2.17;1.93;;;14.40;99.90;;;;;;6300633;22;20410;-94
2022/09/04 02:47:19;;;;;;;2.30;2.10;;;14.50;99.90;;;;;;6297623;22;20422;-94
2022/09/04 02:49:57;;;;;;;2.80;2.20;;;14.40;99.90;;;;;;6298720;22;20418;-94
2022/09/04 02:52:45;;;;;;;2.60;2.07;;;14.40;99.90;;;;;;6299135;22;20438;-93
2022/09/04 02:55:23;;;;;;;2.30;1.90;;;14.40;99.90;;;;;;6284399;22;20425;-94
2022/09/04 02:58:00;;;;;;;2.73;2.53;;;14.40;99.90;;;;;;6300468;22;20387;-94
2022/09/04 03:00:38;;;;;;;2.20;2.00;;;14.40;99.90;;;;;;6301752;22;20420;-94
2022/09/04 03:03:12;;;;;;;2.43;2.23;;;14.30;99.90;;;;;;6300942;22;20450;-95
2022/09/04 03:05:47;;;;;;;2.50;2.30;;;14.30;99.90;;;;;;6300844;22;20505;-94
2022/09/04 03:08:19;;;;;;;2.40;2.20;;;14.30;99.90;;;;;;6298647;22;20409;-94
2022/09/04 03:10:53;;;;;;;2.27;2.10;;;14.30;99.90;;;;;;6300124;22;20445;-94
2022/09/04 03:13:26;;;;;;;2.50;2.30;;;14.30;99.90;;;;;;6300781;22;20434;-94
2022/09/04 03:16:01;;;;;;;2.07;1.87;;;14.30;99.90;;;;;;6302499;22;20425;-94
2022/09/04 03:18:35;;;;;;;2.73;2.10;;;14.30;99.90;;;;;;6300803;22;20410;-93
2022/09/04 03:21:08;;;;;;;1.93;1.80;;;14.30;99.90;;;;;;6301116;22;20437;-93
2022/09/04 03:23:43;;;;;;;2.33;2.13;;;14.30;99.90;;;;;;6298328;22;20429;-94
2022/09/04 03:26:22;;;;;;;3.00;2.20;;;14.30;99.90;;;;;;6298283;22;20422;-94
2022/09/04 03:29:25;;;;;;;2.23;2.03;;;14.20;99.90;;;;;;6300889;22;20422;-94
2022/09/04 03:32:04;;;;;;;3.00;2.70;;;14.20;99.90;;;;;;6301164;22;20434;-94
2022/09/04 03:34:40;;;;;;;2.40;2.20;;;14.20;99.90;;;;;;6300315;22;20422;-93
2022/09/04 03:37:18;;;;;;;2.30;2.10;;;14.20;99.90;;;;;;6291436;22;20406;-93
2022/09/04 03:39:57;;;;;;;2.30;2.10;;;14.20;99.90;;;;;;6300132;22;20414;-94
2022/09/04 03:42:32;;;;;;;1.97;1.80;;;14.20;99.90;;;;;;6301526;22;20443;-93
2022/09/04 03:45:12;;;;;;;2.13;1.93;;;14.20;99.90;;;;;;6299493;22;20422;-95
2022/09/04 03:47:57;;;;;;;3.03;2.20;;;14.10;99.90;;;;;;6300366;22;20485;-94
2022/09/04 03:50:31;;;;;;;2.57;2.37;;;14.10;99.90;;;;;;6300377;22;20446;-94
2022/09/04 03:53:08;;;;;;;2.67;2.47;;;14.10;99.90;;;;;;6290512;22;20513;-94
2022/09/04 03:56:18;;;;;;;7.10;3.00;;;14.10;99.90;;;;;;6299928;22;20418;-94
2022/09/04 04:01:47;;;;;;;1.70;1.60;;;14.00;99.90;;;;;;6304731;22;20456;-93
2022/09/04 04:04:49;;;;;;;2.40;2.10;;;14.00;99.90;;;;;;6303772;22;20406;-94
2022/09/04 04:07:29;;;;;;;2.30;2.07;;;14.00;99.90;;;;;;6301426;22;20438;-94
2022/09/04 04:10:13;;;;;;;2.47;2.20;;;14.00;99.90;;;;;;6301669;22;20422;-93
2022/09/04 04:13:13;;;;;;;2.90;2.37;;;14.00;99.90;;;;;;6302632;22;20439;-94
2022/09/04 04:15:55;;;;;;;1.80;1.70;;;13.90;99.90;;;;;;6288818;22;20418;-93
2022/09/04 04:18:42;;;;;;;2.17;2.07;;;13.90;99.90;;;;;;6303580;22;20514;-93
2022/09/04 04:21:20;;;;;;;2.20;2.00;;;13.90;99.90;;;;;;6296123;22;20430;-93
2022/09/04 04:24:20;;;;;;;1.87;1.77;;;13.90;99.90;;;;;;6301877;22;20410;-93
2022/09/04 04:27:24;;;;;;;3.77;2.10;;;13.90;99.90;;;;;;6304115;22;20422;-93
2022/09/04 04:30:06;;;;;;;2.27;1.90;;;13.80;99.90;;;;;;6304591;22;20497;-94
2022/09/04 04:32:54;;;;;;;1.83;1.70;;;13.80;99.90;;;;;;6301709;22;20438;-93
2022/09/04 04:35:31;;;;;;;1.87;1.67;;;13.80;99.90;;;;;;6300527;22;20416;-94
2022/09/04 04:38:16;;;;;;;2.30;1.87;;;13.80;99.90;;;;;;6290652;22;20406;-94
2022/09/04 04:41:05;;;;;;;2.47;1.97;;;13.80;99.90;;;;;;6301635;22;20414;-93
2022/09/04 04:43:44;;;;;;;2.10;1.80;;;13.80;99.90;;;;;;6301391;22;20400;-93
2022/09/04 04:46:17;;;;;;;2.10;1.90;;;13.80;99.90;;;;;;6302191;22;20407;-93
2022/09/04 04:49:11;;;;;;;2.23;2.13;;;13.80;99.90;;;;;;6302579;22;20418;-93
2022/09/04 04:51:50;;;;;;;2.20;2.00;;;13.80;99.90;;;;;;6300985;22;20431;-93
2022/09/04 04:54:31;;;;;;;2.30;2.10;;;13.70;99.90;;;;;;6299524;22;20425;-94
2022/09/04 04:57:11;;;;;;;1.97;1.87;;;13.70;99.90;;;;;;6301339;22;20407;-93
2022/09/04 04:59:43;;;;;;;2.40;2.13;;;13.70;99.90;;;;;;6303150;22;20419;-94
2022/09/04 05:02:20;;;;;;;2.80;2.10;;;13.70;99.90;;;;;;6304005;22;20442;-94
2022/09/04 05:04:56;;;;;;;2.30;2.10;;;13.70;99.90;;;;;;6302370;22;20472;-94
2022/09/04 05:07:33;;;;;;;2.40;2.20;;;13.70;99.90;;;;;;6306668;22;20406;-94
2022/09/04 05:10:11;;;;;;;2.30;2.10;;;13.70;99.90;;;;;;6306378;22;20418;-93
2022/09/04 05:13:00;;;;;;;3.43;2.57;;;13.70;99.90;;;;;;6293213;22;20461;-93
2022/09/04 05:15:35;;;;;;;2.13;1.97;;;13.70;99.90;;;;;;6300177;22;20426;-93
2022/09/04 05:18:19;;;;;;;2.60;2.40;;;13.70;99.90;;;;;;6300255;22;20411;-93
2022/09/04 05:20:55;;;;;;;2.40;2.20;;;13.70;99.90;;;;;;6301083;22;20441;-94
2022/09/04 05:23:31;;;;;;;2.43;2.20;;;13.70;99.90;;;;;;6300974;22;20403;-93
2022/09/04 05:26:08;;;;;;;2.07;1.90;;;13.70;99.90;;;;;;6303136;22;20417;-93
2022/09/04 05:28:45;;;;;;;2.00;1.90;;;13.70;99.90;;;;;;6302497;22;20449;-93
2022/09/04 05:31:22;;;;;;;2.33;2.07;;;13.70;99.90;;;;;;6305337;22;20418;-93
2022/09/04 05:33:59;;;;;;;2.40;2.00;;;13.70;99.90;;;;;;6304103;22;20414;-94
2022/09/04 05:36:39;;;;;;;1.67;1.57;;;13.80;99.90;;;;;;6304803;22;20421;-94
2022/09/04 05:39:14;;;;;;;1.87;1.77;;;13.80;99.90;;;;;;6305632;22;20407;-94
2022/09/04 05:42:07;;;;;;;1.80;1.70;;;13.80;99.90;;;;;;6311390;22;20445;-93
2022/09/04 05:44:49;;;;;;;1.80;1.70;;;13.90;99.90;;;;;;6294552;22;20419;-94
2022/09/04 05:47:30;;;;;;;2.40;2.20;;;13.90;99.90;;;;;;6310285;22;20445;-94
2022/09/04 05:50:20;;;;;;;2.40;2.07;;;13.90;99.90;;;;;;6310399;22;20414;-94
2022/09/04 05:53:04;;;;;;;1.90;1.70;;;13.90;99.90;;;;;;6309769;22;20431;-94
2022/09/04 05:56:11;;;;;;;2.10;1.90;;;14.00;99.90;;;;;;6309815;22;20771;-93
2022/09/04 05:59:02;;;;;;;2.37;2.13;;;14.10;99.90;;;;;;6313337;22;20402;-93
2022/09/04 06:04:22;;;;;;;2.90;2.30;;;14.20;99.90;;;;;;6333354;22;20393;-92
2022/09/04 06:06:58;;;;;;;2.47;2.10;;;14.30;99.90;;;;;;6345950;22;20203;-92
2022/09/04 06:09:39;;;;;;;2.07;1.87;;;14.30;99.90;;;;;;6345726;22;20394;-92
2022/09/04 06:12:21;;;;;;;2.33;2.07;;;14.40;99.90;;;;;;6334901;22;20422;-93
2022/09/04 06:21:04;;;;;;;2.30;2.10;;;14.60;99.90;;;;;;6330062;22;20495;-93
2022/09/04 06:23:46;;;;;;;2.40;1.90;;;14.70;99.90;;;;;;6297752;22;20867;-92
2022/09/04 06:26:27;;;;;;;2.37;2.17;;;14.90;99.90;;;;;;6295495;22;20406;-92
2022/09/04 06:29:15;;;;;;;2.37;2.07;;;15.00;99.90;;;;;;6304154;22;20422;-92
2022/09/04 06:32:16;;;;;;;3.00;2.73;;;15.10;99.90;;;;;;6302510;22;20462;-92
2022/09/04 06:35:14;;;;;;;2.90;2.30;;;15.20;99.90;;;;;;6266338;22;20449;-92
2022/09/04 06:37:53;;;;;;;2.87;2.67;;;15.30;99.90;;;;;;6303236;22;20449;-93
2022/09/04 06:40:37;;;;;;;2.47;2.27;;;15.40;99.90;;;;;;6303155;22;20426;-92
2022/09/04 06:43:13;;;;;;;2.67;2.47;;;15.50;99.90;;;;;;6299387;22;20446;-93
2022/09/04 06:45:50;;;;;;;2.57;1.83;;;15.70;99.90;;;;;;6300245;22;20417;-92
2022/09/04 06:48:32;;;;;;;2.60;2.40;;;15.80;99.90;;;;;;6302856;22;20417;-93
2022/09/04 06:51:07;;;;;;;3.00;2.80;;;16.00;99.90;;;;;;6303060;22;20418;-92
2022/09/04 06:53:42;;;;;;;3.30;3.00;;;16.10;99.90;;;;;;6294796;22;20460;-92
2022/09/04 06:56:25;;;;;;;3.07;2.77;;;16.20;99.90;;;;;;6297768;22;20968;-92
2022/09/04 06:59:15;;;;;;;3.93;3.33;;;16.40;99.90;;;;;;6307800;22;20415;-92
2022/09/04 07:01:59;;;;;;;2.90;2.27;;;16.50;99.90;;;;;;6290324;22;20966;-93
2022/09/04 07:04:38;;;;;;;3.17;2.70;;;16.60;99.90;;;;;;6305329;22;20403;-92
2022/09/04 07:07:20;;;;;;;3.20;2.53;;;16.70;99.90;;;;;;6298159;22;20411;-92
2022/09/04 07:09:53;;;;;;;2.90;2.60;;;16.80;99.90;;;;;;6300568;22;20438;-92
2022/09/04 07:12:55;;;;;;;3.00;2.80;;;16.90;99.90;;;;;;6310156;22;20447;-92
2022/09/04 10:56:15;;;;;;;2.37;1.60;;;23.60;99.90;;;;;;6314272;22;20431;-95
2022/09/04 10:59:12;;;;;;;1.50;1.30;;;23.90;99.90;;;;;;6343852;22;20443;-96
2022/09/04 11:02:21;;;;;;;1.47;1.37;;;24.10;99.90;;;;;;6340339;22;20409;-96
2022/09/04 12:48:34;;;;;;;2.97;2.00;;;25.60;99.90;;;;;;6276571;22;20440;-95
2022/09/04 12:54:14;;;;;;;1.97;1.60;;;25.00;99.90;;;;;;6306785;22;20511;-95
2022/09/04 13:00:25;;;;;;;1.40;1.30;;;24.40;99.90;;;;;;6311525;22;20478;-96
2022/09/04 13:03:47;;;;;;;2.23;2.03;;;24.10;99.90;;;;;;6347281;22;20398;-96
2022/09/04 13:06:26;;;;;;;1.60;1.43;;;23.90;99.90;;;;;;6343518;22;20479;-95
2022/09/04 13:09:01;;;;;;;1.70;1.60;;;23.80;99.90;;;;;;6323938;22;20410;-95
2022/09/04 13:11:42;;;;;;;1.63;1.53;;;23.60;99.90;;;;;;6313901;22;20465;-94
2022/09/04 13:14:36;;;;;;;1.30;1.20;;;23.70;99.90;;;;;;6313938;22;20433;-96
2022/09/04 13:17:12;;;;;;;1.70;1.60;;;23.90;99.90;;;;;;6314843;22;20417;-96
2022/09/04 13:22:25;;;;;;;1.50;1.40;;;24.80;99.90;;;;;;6331249;22;20424;-95
2022/09/04 13:25:03;;;;;;;1.83;1.60;;;25.20;99.90;;;;;;6325442;22;20398;-94
2022/09/04 13:27:39;;;;;;;1.57;1.47;;;25.50;99.90;;;;;;6316610;22;20404;-95
2022/09/04 13:30:08;;;;;;;1.97;1.83;;;25.70;99.90;;;;;;6296751;22;20438;-93
2022/09/04 13:32:50;;;;;;;1.50;1.37;;;25.90;99.90;;;;;;6300562;22;20795;-93
2022/09/04 13:35:26;;;;;;;1.67;1.57;;;26.00;99.90;;;;;;6299591;22;20418;-93
2022/09/04 13:38:15;;;;;;;1.70;1.60;;;26.10;99.90;;;;;;6295489;22;20776;-93
2022/09/04 13:41:07;;;;;;;1.80;1.70;;;26.10;99.90;;;;;;6295948;22;20427;-94
2022/09/04 13:44:06;;;;;;;1.50;1.40;;;25.90;99.90;;;;;;6293069;22;20413;-93
2022/09/04 13:46:40;;;;;;;1.77;1.53;;;25.60;99.90;;;;;;6291348;22;20422;-94
2022/09/04 13:49:11;;;;;;;1.80;1.47;;;25.40;99.90;;;;;;6296127;22;20464;-93
2022/09/04 13:51:42;;;;;;;1.70;1.60;;;25.40;99.90;;;;;;6293010;22;20432;-94
2022/09/04 13:54:16;;;;;;;2.10;1.67;;;25.40;99.90;;;;;;6280608;22;20435;-93
2022/09/04 13:56:53;;;;;;;4.27;1.70;;;25.60;99.90;;;;;;6304313;22;20418;-93
2022/09/04 13:59:22;;;;;;;1.77;1.67;;;25.70;99.90;;;;;;6304949;22;20422;-93
2022/09/04 14:01:53;;;;;;;1.90;1.60;;;25.70;99.90;;;;;;6307660;22;20513;-93
2022/09/04 14:04:28;;;;;;;2.03;1.67;;;25.80;99.90;;;;;;6309631;22;20416;-94
2022/09/04 14:07:05;;;;;;;1.63;1.53;;;25.80;99.90;;;;;;6308467;22;20423;-94
2022/09/04 14:09:43;;;;;;;1.93;1.50;;;25.80;99.90;;;;;;6307002;22;20434;-92
2022/09/04 14:12:23;;;;;;;1.30;1.20;;;25.60;99.90;;;;;;6309006;22;20445;-95
2022/09/04 14:15:31;;;;;;;1.80;1.40;;;25.10;99.90;;;;;;6309271;22;20426;-93
2022/09/04 14:18:15;;;;;;;1.37;1.27;;;24.80;99.90;;;;;;6309088;22;20442;-94
2022/09/04 14:20:51;;;;;;;1.87;1.60;;;24.60;99.90;;;;;;6307509;22;20453;-94
2022/09/04 14:23:29;;;;;;;1.30;1.20;;;24.40;99.90;;;;;;6307983;22;20413;-94
2022/09/04 14:26:06;;;;;;;3.73;1.73;;;24.20;99.90;;;;;;6308138;22;20419;-94
2022/09/04 14:28:41;;;;;;;1.63;1.53;;;24.20;99.90;;;;;;6306146;22;20438;-94
2022/09/04 14:31:15;;;;;;;3.40;1.97;;;24.00;99.90;;;;;;6296367;22;20480;-94
2022/09/04 14:33:52;;;;;;;2.30;2.10;;;23.90;99.90;;;;;;6307751;22;20472;-94
2022/09/04 14:36:27;;;;;;;1.97;1.70;;;24.00;99.90;;;;;;6295705;22;20401;-93
2022/09/04 14:39:13;;;;;;;1.70;1.53;;;24.20;99.90;;;;;;6308180;22;20432;-94
2022/09/04 14:42:06;;;;;;;1.70;1.60;;;24.20;99.90;;;;;;6313328;22;20401;-93
2022/09/04 14:44:49;;;;;;;2.43;1.80;;;24.40;99.90;;;;;;6301221;22;20437;-93
2022/09/04 14:47:28;;;;;;;3.17;1.60;;;24.60;99.90;;;;;;6292558;22;20414;-94
2022/09/04 14:50:00;;;;;;;2.05;1.85;;;24.80;99.90;;;;;;6306268;22;20468;-94
2022/09/04 14:52:34;;;;;;;1.90;1.60;;;25.10;99.90;;;;;;6303652;22;20164;-93
2022/09/04 14:55:02;;;;;;;1.77;1.57;;;25.30;99.90;;;;;;6295146;22;20402;-94
2022/09/04 14:57:40;;;;;;;5.50;2.00;;;25.40;99.90;;;;;;6306223;22;20406;-94
2022/09/04 15:00:14;;;;;;;2.40;1.87;;;25.60;99.90;;;;;;6314772;22;20410;-93
2022/09/04 15:05:55;;;;;;;1.70;1.60;;;25.80;99.90;;;;;;5111863;27;20999;-93
2022/09/04 15:08:27;;;;;;;1.77;1.67;;;25.90;99.90;;;;;;5111200;28;20979;-93
2022/09/04 15:10:59;;;;;;;1.60;1.30;;;26.00;99.90;;;;;;5110844;28;20437;-93
2022/09/04 15:13:58;;;;;;;2.43;1.60;;;26.00;99.90;;;;;;5104809;28;20454;-93
2022/09/04 15:16:45;;;;;;;1.80;1.70;;;26.00;99.90;;;;;;5094128;28;20462;-93
2022/09/04 15:19:27;;;;;;;2.07;1.70;;;26.10;99.90;;;;;;5083158;28;20558;-94
2022/09/04 15:22:03;;;;;;;1.70;1.60;;;26.10;99.90;;;;;;5095466;28;20881;-93
2022/09/04 15:24:36;;;;;;;1.83;1.37;;;26.10;99.90;;;;;;5097620;28;20485;-92
2022/09/04 15:30:50;;;;;;;1.63;1.53;;;26.10;99.90;;;;;;5037590;28;20464;-90
2022/09/04 15:33:29;;;;;;;2.07;1.60;;;25.90;99.90;;;;;;5041903;28;20461;-94
2022/09/04 15:36:04;;;;;;;1.50;1.40;;;25.80;99.90;;;;;;5047007;28;20456;-94
2022/09/04 15:38:34;;;;;;;1.93;1.63;;;25.80;99.90;;;;;;5044272;28;20484;-93
2022/09/04 15:43:41;;;;;;;1.40;1.30;;;25.70;99.90;;;;;;5046456;28;20492;-93
2022/09/04 15:46:17;;;;;;;1.60;1.50;;;25.70;99.90;;;;;;5046454;28;20449;-94
2022/09/04 15:48:52;;;;;;;1.47;1.37;;;25.80;99.90;;;;;;5038699;28;20540;-92
2022/09/04 15:51:26;;;;;;;2.17;1.70;;;25.80;99.90;;;;;;5038408;28;20526;-92
2022/09/04 15:54:15;;;;;;;1.70;1.50;;;25.80;99.90;;;;;;5035325;28;20457;-93
2022/09/04 15:56:46;;;;;;;2.70;1.43;;;25.80;99.90;;;;;;5026939;28;20458;-94
2022/09/04 15:59:19;;;;;;;1.73;1.63;;;25.70;99.90;;;;;;5022522;28;20972;-93
2022/09/04 16:01:50;;;;;;;1.33;1.23;;;25.70;99.90;;;;;;5017695;28;20465;-92
2022/09/04 16:04:25;;;;;;;1.67;1.57;;;25.60;99.90;;;;;;5029190;28;20478;-92
2022/09/04 16:06:56;;;;;;;1.63;1.53;;;25.60;99.90;;;;;;5025275;28;20465;-90
2022/09/04 16:09:33;;;;;;;1.73;1.47;;;25.60;99.90;;;;;;5031572;28;20482;-93
2022/09/04 16:12:10;;;;;;;1.77;1.60;;;25.40;99.90;;;;;;5031735;28;20452;-91
2022/09/04 16:14:43;;;;;;;4.03;1.57;;;25.20;99.90;;;;;;5030333;28;20433;-93
2022/09/04 16:17:13;;;;;;;2.07;1.87;;;25.20;99.90;;;;;;5015196;28;20465;-93
2022/09/04 16:19:46;;;;;;;2.03;1.50;;;25.10;99.90;;;;;;5019525;28;20494;-93
2022/09/04 16:22:26;;;;;;;1.60;1.50;;;25.10;99.90;;;;;;5016122;28;20521;-91
2022/09/04 16:25:06;;;;;;;1.70;1.60;;;25.20;99.90;;;;;;5018534;28;20845;-91
2022/09/04 16:27:41;;;;;;;2.43;2.23;;;25.20;99.90;;;;;;5012018;28;20494;-92
2022/09/04 16:30:10;;;;;;;2.37;2.17;;;25.20;99.90;;;;;;5011029;28;20462;-92
2022/09/04 16:32:42;;;;;;;2.07;1.87;;;25.20;99.90;;;;;;5020679;28;20459;-93
2022/09/04 16:35:17;;;;;;;2.30;2.10;;;25.20;99.90;;;;;;5018428;28;20450;-93
2022/09/04 16:37:51;;;;;;;1.77;1.60;;;25.10;99.90;;;;;;5018253;28;20475;-93
2022/09/04 16:40:29;;;;;;;1.60;1.50;;;25.10;99.90;;;;;;5013792;28;20494;-93
2022/09/04 16:43:09;;;;;;;1.93;1.70;;;25.00;99.90;;;;;;5016840;28;20460;-95
2022/09/04 16:45:44;;;;;;;1.77;1.67;;;24.90;99.90;;;;;;5017228;28;20516;-93
2022/09/04 16:48:16;;;;;;;2.13;1.90;;;24.90;99.90;;;;;;5017839;28;20472;-92
2022/09/04 16:50:51;;;;;;;1.83;1.73;;;24.80;99.90;;;;;;5017348;28;20466;-92
2022/09/04 16:53:26;;;;;;;2.40;1.90;;;24.70;99.90;;;;;;5018183;28;20442;-94
2022/09/04 16:56:01;;;;;;;2.20;1.80;;;24.60;99.90;;;;;;5017187;28;20469;-93
2022/09/04 16:58:38;;;;;;;2.10;1.90;;;24.50;99.90;;;;;;5006775;28;20471;-93
2022/09/04 17:01:41;;;;;;;1.97;1.60;;;24.30;99.90;;;;;;5002617;28;20290;-94
2022/09/04 17:04:27;;;;;;;2.30;2.10;;;24.20;99.90;;;;;;5013755;28;20468;-94
2022/09/04 17:07:08;;;;;;;2.27;2.07;;;24.00;99.90;;;;;;5018605;28;20520;-94
2022/09/04 17:09:50;;;;;;;2.53;2.33;;;23.80;99.90;;;;;;5013268;28;20473;-93
2022/09/04 17:12:37;;;;;;;2.10;1.83;;;23.60;99.90;;;;;;5010268;28;20480;-92
2022/09/04 17:15:16;;;;;;;2.47;2.27;;;23.50;99.90;;;;;;5014242;28;20449;-95
2022/09/04 17:17:46;;;;;;;3.87;2.00;;;23.30;99.90;;;;;;5017716;28;20480;-96
2022/09/04 17:20:24;;;;;;;2.30;2.10;;;23.10;99.90;;;;;;5019138;28;20442;-94
2022/09/04 17:23:05;;;;;;;2.40;2.20;;;23.00;99.90;;;;;;5019511;28;20456;-95
2022/09/04 17:25:36;;;;;;;2.40;2.20;;;22.90;99.90;;;;;;5019054;28;20464;-95
2022/09/04 17:28:28;;;;;;;2.90;2.33;;;22.70;99.90;;;;;;5014189;28;20509;-94
2022/09/04 17:31:00;;;;;;;3.83;1.93;;;22.50;99.90;;;;;;5010107;28;20460;-95
2022/09/04 17:33:38;;;;;;;2.23;1.87;;;22.30;99.90;;;;;;5014568;28;20476;-94
2022/09/04 17:36:11;;;;;;;2.60;2.10;;;22.10;99.90;;;;;;5015770;28;20507;-92
2022/09/04 17:38:46;;;;;;;2.07;1.87;;;22.00;99.90;;;;;;5016062;28;20475;-92
2022/09/04 17:41:20;;;;;;;3.07;2.30;;;21.80;99.90;;;;;;5016921;28;20463;-94
2022/09/04 17:44:04;;;;;;;2.17;1.97;;;21.60;99.90;;;;;;5015573;28;20454;-93
2022/09/04 17:46:35;;;;;;;2.23;2.03;;;21.50;99.90;;;;;;5014037;28;20435;-95
2022/09/04 17:51:55;;;;;;;2.50;2.30;;;21.20;99.90;;;;;;5014285;22;20479;-93
2022/09/04 18:25:31;;;;;;;2.30;2.10;;;19.70;99.90;;;;;;2943086;22;20507;-92
2022/09/04 18:28:07;;;;;;;2.27;2.07;;;19.60;99.90;;;;;;5031332;28;20495;-90
2022/09/04 18:30:45;;;;;;;2.40;1.87;;;19.50;99.90;;;;;;5007545;28;20824;-94
2022/09/04 18:33:21;;;;;;;2.40;2.20;;;19.40;99.90;;;;;;5011371;28;20894;-95
2022/09/04 18:35:56;;;;;;;2.10;1.73;;;19.40;99.90;;;;;;5010565;28;20517;-94
2022/09/04 18:38:35;;;;;;;2.67;2.40;;;19.30;99.90;;;;;;5010247;28;20489;-94
2022/09/04 18:41:13;;;;;;;2.27;2.07;;;19.20;99.90;;;;;;5008994;28;20466;-94
2022/09/04 18:43:49;;;;;;;2.50;1.73;;;19.10;99.90;;;;;;5010135;28;20502;-93
2022/09/04 18:46:21;;;;;;;2.53;2.23;;;19.10;99.90;;;;;;5010989;28;20578;-92
2022/09/04 18:48:48;;;;;;;3.40;2.10;;;19.00;99.90;;;;;;5008191;28;20474;-92
2022/09/04 18:51:23;;;;;;;2.30;2.10;;;18.90;99.90;;;;;;5007023;28;20548;-92
2022/09/04 18:53:53;;;;;;;2.33;2.00;;;18.90;99.90;;;;;;5008013;28;20462;-93
2022/09/04 18:56:27;;;;;;;2.37;2.17;;;18.80;99.90;;;;;;5003228;28;20464;-93
2022/09/04 18:59:00;;;;;;;2.00;1.90;;;18.80;99.90;;;;;;4998581;28;21159;-93
2022/09/04 19:01:37;;;;;;;1.63;1.53;;;18.70;99.90;;;;;;5002468;28;20466;-93
2022/09/04 19:04:42;;;;;;;2.10;1.90;;;18.60;99.90;;;;;;4999097;28;20473;-93
2022/09/04 19:07:16;;;;;;;1.87;1.77;;;18.60;99.90;;;;;;4998503;28;20463;-94
2022/09/04 19:10:15;;;;;;;2.10;1.57;;;18.50;99.90;;;;;;5000710;28;20458;-93
2022/09/04 19:12:57;;;;;;;3.67;2.43;;;18.40;99.90;;;;;;5000237;28;20521;-93
2022/09/04 19:15:48;;;;;;;1.80;1.60;;;18.40;99.90;;;;;;4998246;28;20459;-92
2022/09/04 19:18:25;;;;;;;3.23;2.10;;;18.30;99.90;;;;;;5003464;28;20486;-94
2022/09/04 19:21:02;;;;;;;1.93;1.77;;;18.30;99.90;;;;;;5001629;28;20477;-94
2022/09/04 19:23:33;;;;;;;2.10;1.90;;;18.20;99.90;;;;;;5004914;28;20860;-94
2022/09/04 19:26:08;;;;;;;1.70;1.60;;;18.20;99.90;;;;;;5009002;28;20830;-94
2022/09/04 19:28:46;;;;;;;2.27;1.73;;;18.20;99.90;;;;;;5001372;28;20846;-92
2022/09/04 19:33:52;;;;;;;2.60;2.33;;;18.10;99.90;;;;;;5228874;22;20499;-92
2022/09/04 20:00:24;;;;;;;3.50;1.90;;;17.70;99.90;;;;;;5535500;22;20512;-95
2022/09/04 20:08:11;;;;;;;2.90;2.70;;;17.60;99.90;;;;;;5344635;22;20478;-95
2022/09/04 20:16:24;;;;;;;3.53;3.20;;;17.50;99.90;;;;;;5086407;22;20476;-94
2022/09/04 20:21:51;;;;;;;2.67;2.30;;;17.40;99.90;;;;;;5016565;28;20473;-93
2022/09/04 20:24:27;;;;;;;3.57;2.03;;;17.40;99.90;;;;;;5017338;28;20434;-94
2022/09/04 20:27:05;;;;;;;1.90;1.80;;;17.30;99.90;;;;;;5018550;28;20510;-94
2022/09/04 20:33:02;;;;;;;2.23;2.03;;;17.30;99.90;;;;;;5015333;28;20447;-94
2022/09/04 20:35:39;;;;;;;2.90;2.10;;;17.30;99.90;;;;;;5019431;28;20519;-94
2022/09/04 20:38:31;;;;;;;2.20;1.90;;;17.20;99.90;;;;;;5020182;28;20465;-93
2022/09/04 20:41:08;;;;;;;2.80;2.03;;;17.20;99.90;;;;;;5020299;28;20442;-93
2022/09/04 20:43:46;;;;;;;2.10;1.90;;;17.10;99.90;;;;;;5018943;28;20541;-92
2022/09/04 20:46:18;;;;;;;2.40;2.10;;;17.10;99.90;;;;;;5019449;28;20546;-93
2022/09/04 20:49:10;;;;;;;3.33;2.93;;;17.00;99.90;;;;;;5018836;28;20482;-94
2022/09/04 20:51:49;;;;;;;2.10;1.77;;;17.00;99.90;;;;;;5018823;28;20459;-94
2022/09/04 20:54:53;;;;;;;2.53;2.20;;;17.00;99.90;;;;;;5018668;28;20510;-94
2022/09/04 20:57:47;;;;;;;2.60;2.40;;;17.00;99.90;;;;;;5018197;28;20458;-93
2022/09/04 21:00:15;;;;;;;2.00;1.87;;;17.00;99.90;;;;;;5018721;28;20506;-93
2022/09/04 21:03:04;;;;;;;3.53;2.60;;;16.90;99.90;;;;;;5018544;28;20463;-93
2022/09/04 21:06:24;;;;;;;3.27;2.27;;;16.90;99.90;;;;;;5018656;28;20471;-93